sensor_id;sensor_type;location;lat;lon;timestamp;pressure;altitude;pressure_sealevel;temperature;humidity
36378;BME280;22402;42.746;23.606;2023-05-14T00:00:23;93948.34;;;17.06;68.17
36378;BME280;22402;42.746;23.606;2023-05-14T00:02:48;93940.78;;;17.03;67.62
36378;BME280;22402;42.746;23.606;2023-05-14T00:05:14;93941.78;;;17.02;67.67
36378;BME280;22402;42.746;23.606;2023-05-14T00:07:39;93933.41;;;16.99;67.64
36378;BME280;22402;42.746;23.606;2023-05-14T00:10:05;93932.91;;;16.95;68.09
36378;BME280;22402;42.746;23.606;2023-05-14T00:12:31;93938.69;;;16.99;67.84
36378;BME280;22402;42.746;23.606;2023-05-14T00:14:56;93938.84;;;16.97;67.69
36378;BME280;22402;42.746;23.606;2023-05-14T00:17:22;93942.47;;;16.96;68.10
36378;BME280;22402;42.746;23.606;2023-05-14T00:19:47;93942.63;;;16.95;68.24
36378;BME280;22402;42.746;23.606;2023-05-14T00:22:13;93944.66;;;16.93;68.18
36378;BME280;22402;42.746;23.606;2023-05-14T00:24:38;93935.28;;;16.90;68.06
36378;BME280;22402;42.746;23.606;2023-05-14T00:27:04;93930.34;;;16.87;68.25
36378;BME280;22402;42.746;23.606;2023-05-14T00:29:30;93918.50;;;16.83;68.27
36378;BME280;22402;42.746;23.606;2023-05-14T00:31:56;93928.06;;;16.84;68.58
36378;BME280;22402;42.746;23.606;2023-05-14T00:34:21;93929.22;;;16.81;68.47
36378;BME280;22402;42.746;23.606;2023-05-14T00:36:47;93921.47;;;16.80;68.55
36378;BME280;22402;42.746;23.606;2023-05-14T00:39:12;93913.25;;;16.75;68.52
36378;BME280;22402;42.746;23.606;2023-05-14T00:41:38;93922.13;;;16.74;68.62
36378;BME280;22402;42.746;23.606;2023-05-14T00:44:04;93908.94;;;16.74;68.46
36378;BME280;22402;42.746;23.606;2023-05-14T00:46:29;93906.66;;;16.71;68.67
36378;BME280;22402;42.746;23.606;2023-05-14T00:48:56;93904.22;;;16.69;68.77
36378;BME280;22402;42.746;23.606;2023-05-14T00:51:21;93912.25;;;16.68;68.63
36378;BME280;22402;42.746;23.606;2023-05-14T00:53:47;93903.72;;;16.66;68.55
36378;BME280;22402;42.746;23.606;2023-05-14T00:56:13;93903.91;;;16.64;68.69
36378;BME280;22402;42.746;23.606;2023-05-14T00:58:39;93900.78;;;16.60;68.91
36378;BME280;22402;42.746;23.606;2023-05-14T01:01:04;93901.59;;;16.61;69.24
36378;BME280;22402;42.746;23.606;2023-05-14T01:03:30;93895.69;;;16.59;68.87
36378;BME280;22402;42.746;23.606;2023-05-14T01:08:55;93895.03;;;16.57;68.84
36378;BME280;22402;42.746;23.606;2023-05-14T01:11:35;93895.38;;;16.54;69.17
36378;BME280;22402;42.746;23.606;2023-05-14T01:14:37;93885.16;;;16.51;69.31
36378;BME280;22402;42.746;23.606;2023-05-14T01:17:06;93875.97;;;16.47;69.55
36378;BME280;22402;42.746;23.606;2023-05-14T01:19:45;93883.72;;;16.48;69.08
36378;BME280;22402;42.746;23.606;2023-05-14T01:22:11;93874.50;;;16.44;69.40
36378;BME280;22402;42.746;23.606;2023-05-14T01:24:37;93874.50;;;16.44;69.40
36378;BME280;22402;42.746;23.606;2023-05-14T01:27:09;93873.69;;;16.44;69.18
36378;BME280;22402;42.746;23.606;2023-05-14T01:29:37;93874.84;;;16.41;69.50
36378;BME280;22402;42.746;23.606;2023-05-14T01:32:07;93878.47;;;16.40;69.55
36378;BME280;22402;42.746;23.606;2023-05-14T01:34:35;93882.75;;;16.33;69.30
36378;BME280;22402;42.746;23.606;2023-05-14T01:37:03;93897.03;;;16.38;69.69
36378;BME280;22402;42.746;23.606;2023-05-14T01:39:29;93905.13;;;16.37;69.49
36378;BME280;22402;42.746;23.606;2023-05-14T01:41:56;93910.38;;;16.37;69.46
36378;BME280;22402;42.746;23.606;2023-05-14T01:44:23;93922.88;;;16.35;69.81
36378;BME280;22402;42.746;23.606;2023-05-14T01:46:49;93915.97;;;16.34;69.63
36378;BME280;22402;42.746;23.606;2023-05-14T01:49:14;93915.31;;;16.32;69.88
36378;BME280;22402;42.746;23.606;2023-05-14T01:51:42;93925.19;;;16.30;69.72
36378;BME280;22402;42.746;23.606;2023-05-14T01:54:08;93912.69;;;16.24;69.81
36378;BME280;22402;42.746;23.606;2023-05-14T01:56:33;93919.91;;;16.30;69.98
36378;BME280;22402;42.746;23.606;2023-05-14T01:58:58;93923.56;;;16.29;70.01
36378;BME280;22402;42.746;23.606;2023-05-14T02:01:24;93919.63;;;16.25;70.33
36378;BME280;22402;42.746;23.606;2023-05-14T02:03:50;93923.06;;;16.25;70.17
36378;BME280;22402;42.746;23.606;2023-05-14T02:06:16;93913.69;;;16.23;70.34
36378;BME280;22402;42.746;23.606;2023-05-14T02:08:41;93915.34;;;16.24;69.97
36378;BME280;22402;42.746;23.606;2023-05-14T02:11:06;93909.59;;;16.20;70.05
36378;BME280;22402;42.746;23.606;2023-05-14T02:13:32;93908.78;;;16.20;70.01
36378;BME280;22402;42.746;23.606;2023-05-14T02:15:57;93912.41;;;16.18;70.28
36378;BME280;22402;42.746;23.606;2023-05-14T02:18:23;93920.63;;;16.15;70.41
36378;BME280;22402;42.746;23.606;2023-05-14T02:20:48;93921.44;;;16.16;70.39
36378;BME280;22402;42.746;23.606;2023-05-14T02:23:14;93924.22;;;16.14;70.25
36378;BME280;22402;42.746;23.606;2023-05-14T02:25:39;93928.84;;;16.12;70.45
36378;BME280;22402;42.746;23.606;2023-05-14T02:28:04;93924.75;;;16.10;70.43
36378;BME280;22402;42.746;23.606;2023-05-14T02:30:30;93926.56;;;16.09;70.62
36378;BME280;22402;42.746;23.606;2023-05-14T02:32:56;93929.66;;;16.05;70.75
36378;BME280;22402;42.746;23.606;2023-05-14T02:35:21;93927.22;;;16.03;70.64
36378;BME280;22402;42.746;23.606;2023-05-14T02:37:47;93922.94;;;16.02;70.96
36378;BME280;22402;42.746;23.606;2023-05-14T02:40:12;93927.38;;;16.02;70.67
36378;BME280;22402;42.746;23.606;2023-05-14T02:42:38;93925.88;;;15.99;71.11
36378;BME280;22402;42.746;23.606;2023-05-14T02:45:03;93916.69;;;15.95;70.74
36378;BME280;22402;42.746;23.606;2023-05-14T02:47:29;93913.41;;;15.93;71.46
36378;BME280;22402;42.746;23.606;2023-05-14T02:52:30;93924.44;;;15.88;71.02
36378;BME280;22402;42.746;23.606;2023-05-14T02:54:55;93933.28;;;15.87;70.93
36378;BME280;22402;42.746;23.606;2023-05-14T02:57:20;93940.50;;;15.85;71.11
36378;BME280;22402;42.746;23.606;2023-05-14T02:59:46;93952.19;;;15.83;71.27
36378;BME280;22402;42.746;23.606;2023-05-14T03:02:11;93950.53;;;15.82;71.61
36378;BME280;22402;42.746;23.606;2023-05-14T03:04:37;93948.09;;;15.80;71.82
36378;BME280;22402;42.746;23.606;2023-05-14T03:07:02;93947.59;;;15.77;71.59
36378;BME280;22402;42.746;23.606;2023-05-14T03:09:27;93945.94;;;15.76;71.87
36378;BME280;22402;42.746;23.606;2023-05-14T03:11:53;93957.44;;;15.75;71.49
36378;BME280;22402;42.746;23.606;2023-05-14T03:14:19;93944.63;;;15.71;71.97
36378;BME280;22402;42.746;23.606;2023-05-14T03:16:44;93940.38;;;15.70;71.52
36378;BME280;22402;42.746;23.606;2023-05-14T03:19:10;93937.06;;;15.68;71.88
36378;BME280;22402;42.746;23.606;2023-05-14T03:21:35;93934.56;;;15.67;72.23
36378;BME280;22402;42.746;23.606;2023-05-14T03:24:01;93936.38;;;15.66;72.54
36378;BME280;22402;42.746;23.606;2023-05-14T03:26:26;93943.59;;;15.64;72.11
36378;BME280;22402;42.746;23.606;2023-05-14T03:28:52;93927.81;;;15.56;72.13
36378;BME280;22402;42.746;23.606;2023-05-14T03:31:17;93937.69;;;15.62;72.64
36378;BME280;22402;42.746;23.606;2023-05-14T03:33:43;93926.50;;;15.60;72.31
36378;BME280;22402;42.746;23.606;2023-05-14T03:36:08;93919.63;;;15.59;72.96
36378;BME280;22402;42.746;23.606;2023-05-14T03:38:34;93921.25;;;15.60;72.54
36378;BME280;22402;42.746;23.606;2023-05-14T03:40:59;93916.16;;;15.50;72.58
36378;BME280;22402;42.746;23.606;2023-05-14T03:43:25;93931.75;;;15.60;72.95
36378;BME280;22402;42.746;23.606;2023-05-14T03:45:50;93931.75;;;15.60;72.84
36378;BME280;22402;42.746;23.606;2023-05-14T03:48:17;93930.75;;;15.61;73.27
36378;BME280;22402;42.746;23.606;2023-05-14T03:50:43;93928.13;;;15.61;73.08
36378;BME280;22402;42.746;23.606;2023-05-14T03:53:09;93927.81;;;15.64;72.98
36378;BME280;22402;42.746;23.606;2023-05-14T03:55:34;93925.19;;;15.64;73.12
36378;BME280;22402;42.746;23.606;2023-05-14T03:58:01;93927.66;;;15.66;73.05
36378;BME280;22402;42.746;23.606;2023-05-14T04:00:27;93930.44;;;15.64;73.31
36378;BME280;22402;42.746;23.606;2023-05-14T04:02:52;93945.06;;;15.67;73.18
36378;BME280;22402;42.746;23.606;2023-05-14T04:05:18;93937.38;;;15.65;73.54
36378;BME280;22402;42.746;23.606;2023-05-14T04:07:43;93931.28;;;15.65;73.37
36378;BME280;22402;42.746;23.606;2023-05-14T04:10:11;93940.38;;;15.70;73.90
36378;BME280;22402;42.746;23.606;2023-05-14T04:12:37;93928.84;;;15.71;73.68
36378;BME280;22402;42.746;23.606;2023-05-14T04:15:03;93905.47;;;15.60;73.46
36378;BME280;22402;42.746;23.606;2023-05-14T04:17:30;93935.25;;;15.77;73.65
36378;BME280;22402;42.746;23.606;2023-05-14T04:19:55;93943.47;;;15.82;73.57
36378;BME280;22402;42.746;23.606;2023-05-14T04:22:21;93942.31;;;15.85;73.49
36378;BME280;22402;42.746;23.606;2023-05-14T04:24:46;93930.50;;;15.81;73.79
36378;BME280;22402;42.746;23.606;2023-05-14T04:27:18;93929.34;;;15.83;74.00
36378;BME280;22402;42.746;23.606;2023-05-14T04:29:44;93942.19;;;15.94;74.00
36378;BME280;22402;42.746;23.606;2023-05-14T04:32:09;93939.69;;;15.93;73.99
36378;BME280;22402;42.746;23.606;2023-05-14T04:34:36;93952.84;;;16.01;73.79
36378;BME280;22402;42.746;23.606;2023-05-14T04:37:02;93939.38;;;15.96;74.03
36378;BME280;22402;42.746;23.606;2023-05-14T04:39:28;93952.53;;;16.04;74.11
36378;BME280;22402;42.746;23.606;2023-05-14T04:41:53;93954.00;;;16.07;74.24
36378;BME280;22402;42.746;23.606;2023-05-14T04:44:19;93950.38;;;16.08;74.32
36378;BME280;22402;42.746;23.606;2023-05-14T04:46:45;93960.75;;;16.09;73.94
36378;BME280;22402;42.746;23.606;2023-05-14T04:49:10;93966.00;;;16.09;74.11
36378;BME280;22402;42.746;23.606;2023-05-14T04:51:35;93963.19;;;16.11;74.29
36378;BME280;22402;42.746;23.606;2023-05-14T04:54:01;93952.19;;;16.07;74.33
36378;BME280;22402;42.746;23.606;2023-05-14T04:56:27;93974.19;;;16.14;74.52
36378;BME280;22402;42.746;23.606;2023-05-14T04:58:52;93970.41;;;16.17;74.22
36378;BME280;22402;42.746;23.606;2023-05-14T05:01:17;93976.50;;;16.17;74.46
36378;BME280;22402;42.746;23.606;2023-05-14T05:03:43;93986.06;;;16.18;74.51
36378;BME280;22402;42.746;23.606;2023-05-14T05:06:08;93984.38;;;16.17;74.87
36378;BME280;22402;42.746;23.606;2023-05-14T05:08:35;93995.72;;;16.18;74.74
36378;BME280;22402;42.746;23.606;2023-05-14T05:11:00;94001.00;;;16.18;74.60
36378;BME280;22402;42.746;23.606;2023-05-14T05:13:26;94005.44;;;16.17;74.51
36378;BME280;22402;42.746;23.606;2023-05-14T05:15:51;94011.03;;;16.14;74.63
36378;BME280;22402;42.746;23.606;2023-05-14T05:18:16;94026.81;;;16.14;75.21
36378;BME280;22402;42.746;23.606;2023-05-14T05:20:42;94022.53;;;16.13;74.98
36378;BME280;22402;42.746;23.606;2023-05-14T05:23:07;94025.84;;;16.07;75.08
36378;BME280;22402;42.746;23.606;2023-05-14T05:25:33;94038.47;;;16.12;75.22
36378;BME280;22402;42.746;23.606;2023-05-14T05:27:58;94036.03;;;16.10;75.09
36378;BME280;22402;42.746;23.606;2023-05-14T05:30:24;94045.72;;;16.10;75.41
36378;BME280;22402;42.746;23.606;2023-05-14T05:32:49;94041.63;;;16.07;75.52
36378;BME280;22402;42.746;23.606;2023-05-14T05:35:14;94052.13;;;16.07;75.37
36378;BME280;22402;42.746;23.606;2023-05-14T05:37:40;94064.63;;;16.05;75.50
36378;BME280;22402;42.746;23.606;2023-05-14T05:40:07;94058.53;;;16.05;75.33
36378;BME280;22402;42.746;23.606;2023-05-14T05:42:33;94066.59;;;16.03;75.49
36378;BME280;22402;42.746;23.606;2023-05-14T05:44:58;94070.19;;;16.02;75.83
36378;BME280;22402;42.746;23.606;2023-05-14T05:47:24;94067.56;;;16.02;75.72
36378;BME280;22402;42.746;23.606;2023-05-14T05:49:49;94064.13;;;16.02;75.92
36378;BME280;22402;42.746;23.606;2023-05-14T05:52:15;94062.50;;;16.01;76.13
36378;BME280;22402;42.746;23.606;2023-05-14T05:54:40;94072.16;;;16.00;76.46
36378;BME280;22402;42.746;23.606;2023-05-14T05:57:05;94072.16;;;16.00;76.82
36378;BME280;22402;42.746;23.606;2023-05-14T05:59:31;94075.78;;;15.99;76.94
36378;BME280;22402;42.746;23.606;2023-05-14T06:01:56;94080.22;;;15.99;76.99
36378;BME280;22402;42.746;23.606;2023-05-14T06:04:22;94080.38;;;15.97;76.84
36378;BME280;22402;42.746;23.606;2023-05-14T06:06:47;94076.78;;;15.98;76.84
36378;BME280;22402;42.746;23.606;2023-05-14T06:09:13;94079.41;;;15.98;77.02
36378;BME280;22402;42.746;23.606;2023-05-14T06:11:38;94063.63;;;15.98;77.37
36378;BME280;22402;42.746;23.606;2023-05-14T06:14:04;94062.97;;;15.96;76.81
36378;BME280;22402;42.746;23.606;2023-05-14T06:16:30;94053.44;;;15.95;77.14
36378;BME280;22402;42.746;23.606;2023-05-14T06:18:55;94040.13;;;15.88;77.38
36378;BME280;22402;42.746;23.606;2023-05-14T06:21:21;94051.13;;;15.92;77.49
36378;BME280;22402;42.746;23.606;2023-05-14T06:23:46;94051.28;;;15.90;77.16
36378;BME280;22402;42.746;23.606;2023-05-14T06:26:12;94047.16;;;15.88;77.96
36378;BME280;22402;42.746;23.606;2023-05-14T06:28:37;94048.16;;;15.87;77.91
36378;BME280;22402;42.746;23.606;2023-05-14T06:31:03;94044.72;;;15.86;78.12
36378;BME280;22402;42.746;23.606;2023-05-14T06:33:28;94040.59;;;15.84;78.10
36378;BME280;22402;42.746;23.606;2023-05-14T06:35:59;94039.78;;;15.83;77.82
36378;BME280;22402;42.746;23.606;2023-05-14T06:38:25;94033.69;;;15.83;78.31
36378;BME280;22402;42.746;23.606;2023-05-14T06:40:50;94028.25;;;15.76;78.24
36378;BME280;22402;42.746;23.606;2023-05-14T06:43:17;94025.13;;;15.81;78.50
36378;BME280;22402;42.746;23.606;2023-05-14T06:45:42;94019.03;;;15.72;78.26
36378;BME280;22402;42.746;23.606;2023-05-14T06:48:08;94036.97;;;15.77;78.46
36378;BME280;22402;42.746;23.606;2023-05-14T06:50:34;94047.81;;;15.74;78.56
36378;BME280;22402;42.746;23.606;2023-05-14T06:53:00;94048.78;;;15.72;78.99
36378;BME280;22402;42.746;23.606;2023-05-14T06:55:25;94048.13;;;15.70;78.62
36378;BME280;22402;42.746;23.606;2023-05-14T06:57:51;94046.66;;;15.68;78.76
36378;BME280;22402;42.746;23.606;2023-05-14T07:00:17;94044.13;;;15.66;79.12
36378;BME280;22402;42.746;23.606;2023-05-14T07:02:42;94044.13;;;15.66;79.29
36378;BME280;22402;42.746;23.606;2023-05-14T07:05:09;94036.41;;;15.65;79.30
36378;BME280;22402;42.746;23.606;2023-05-14T07:07:35;94037.56;;;15.62;79.66
36378;BME280;22402;42.746;23.606;2023-05-14T07:10:00;94028.34;;;15.58;79.82
36378;BME280;22402;42.746;23.606;2023-05-14T07:12:26;94009.63;;;15.61;79.97
36378;BME280;22402;42.746;23.606;2023-05-14T07:14:51;94011.91;;;15.64;79.97
36378;BME280;22402;42.746;23.606;2023-05-14T07:17:17;94005.69;;;15.65;80.27
36378;BME280;22402;42.746;23.606;2023-05-14T07:19:42;94003.88;;;15.66;79.81
36378;BME280;22402;42.746;23.606;2023-05-14T07:22:08;94014.09;;;15.69;80.16
36378;BME280;22402;42.746;23.606;2023-05-14T07:24:33;94017.56;;;15.69;80.04
36378;BME280;22402;42.746;23.606;2023-05-14T07:26:59;94017.22;;;15.72;80.61
36378;BME280;22402;42.746;23.606;2023-05-14T07:29:26;94018.06;;;15.73;80.53
36378;BME280;22402;42.746;23.606;2023-05-14T07:31:51;94034.50;;;15.75;80.40
36378;BME280;22402;42.746;23.606;2023-05-14T07:34:17;94044.00;;;15.76;80.65
36378;BME280;22402;42.746;23.606;2023-05-14T07:36:43;94057.34;;;15.75;80.64
36378;BME280;22402;42.746;23.606;2023-05-14T07:39:08;94047.13;;;15.71;81.65
36378;BME280;22402;42.746;23.606;2023-05-14T07:41:33;94050.75;;;15.70;82.34
36378;BME280;22402;42.746;23.606;2023-05-14T07:43:59;94052.41;;;15.71;81.93
36378;BME280;22402;42.746;23.606;2023-05-14T07:46:24;94049.38;;;15.66;82.06
36378;BME280;22402;42.746;23.606;2023-05-14T07:48:50;94036.94;;;15.68;81.81
36378;BME280;22402;42.746;23.606;2023-05-14T07:51:16;94042.50;;;15.65;82.30
36378;BME280;22402;42.746;23.606;2023-05-14T07:53:41;94036.56;;;15.63;82.43
36378;BME280;22402;42.746;23.606;2023-05-14T07:56:07;94044.78;;;15.60;82.27
36378;BME280;22402;42.746;23.606;2023-05-14T07:58:32;94042.16;;;15.60;82.18
36378;BME280;22402;42.746;23.606;2023-05-14T08:00:59;94043.13;;;15.59;82.16
36378;BME280;22402;42.746;23.606;2023-05-14T08:03:25;94055.28;;;15.60;82.29
36378;BME280;22402;42.746;23.606;2023-05-14T08:05:51;94066.47;;;15.62;82.49
36378;BME280;22402;42.746;23.606;2023-05-14T08:08:16;94082.88;;;15.64;83.02
36378;BME280;22402;42.746;23.606;2023-05-14T08:10:42;94091.44;;;15.66;83.00
36378;BME280;22402;42.746;23.606;2023-05-14T08:13:07;94079.81;;;15.69;82.66
36378;BME280;22402;42.746;23.606;2023-05-14T08:15:33;94063.91;;;15.70;83.18
36378;BME280;22402;42.746;23.606;2023-05-14T08:17:58;94055.63;;;15.65;83.20
36378;BME280;22402;42.746;23.606;2023-05-14T08:20:30;94054.38;;;15.78;83.10
36378;BME280;22402;42.746;23.606;2023-05-14T08:22:56;94058.31;;;15.82;83.38
36378;BME280;22402;42.746;23.606;2023-05-14T08:25:22;94049.78;;;15.88;83.72
36378;BME280;22402;42.746;23.606;2023-05-14T08:27:48;94057.03;;;15.94;83.89
36378;BME280;22402;42.746;23.606;2023-05-14T08:30:14;94058.03;;;16.01;84.19
36378;BME280;22402;42.746;23.606;2023-05-14T08:32:39;94053.94;;;16.07;83.93
36378;BME280;22402;42.746;23.606;2023-05-14T08:35:05;94047.84;;;16.14;83.76
36378;BME280;22402;42.746;23.606;2023-05-14T08:37:31;94041.13;;;16.20;84.33
36378;BME280;22402;42.746;23.606;2023-05-14T08:39:56;94041.28;;;16.27;83.96
36378;BME280;22402;42.746;23.606;2023-05-14T08:42:23;94031.75;;;16.34;84.01
36378;BME280;22402;42.746;23.606;2023-05-14T08:44:53;94035.34;;;16.41;84.19
36378;BME280;22402;42.746;23.606;2023-05-14T08:47:22;94031.09;;;16.48;84.67
36378;BME280;22402;42.746;23.606;2023-05-14T08:49:53;94030.25;;;16.56;84.62
36378;BME280;22402;42.746;23.606;2023-05-14T08:52:22;94032.41;;;16.60;84.69
36378;BME280;22402;42.746;23.606;2023-05-14T08:54:49;94016.28;;;16.63;84.96
36378;BME280;22402;42.746;23.606;2023-05-14T08:57:16;94008.03;;;16.58;84.82
36378;BME280;22402;42.746;23.606;2023-05-14T08:59:42;94000.47;;;16.63;84.95
36378;BME280;22402;42.746;23.606;2023-05-14T09:02:08;94011.50;;;16.67;85.60
36378;BME280;22402;42.746;23.606;2023-05-14T09:04:37;94001.78;;;16.76;85.86
36378;BME280;22402;42.746;23.606;2023-05-14T09:07:03;93991.25;;;16.84;85.97
36378;BME280;22402;42.746;23.606;2023-05-14T09:09:31;93996.94;;;17.04;85.46
36378;BME280;22402;42.746;23.606;2023-05-14T09:11:57;93995.56;;;17.16;85.08
36378;BME280;22402;42.746;23.606;2023-05-14T09:14:22;93991.09;;;17.25;84.93
36378;BME280;22402;42.746;23.606;2023-05-14T09:16:49;93997.63;;;17.37;84.41
36378;BME280;22402;42.746;23.606;2023-05-14T09:19:15;93992.97;;;17.47;83.81
36378;BME280;22402;42.746;23.606;2023-05-14T09:21:43;94002.59;;;17.63;83.40
36378;BME280;22402;42.746;23.606;2023-05-14T09:24:18;94001.03;;;17.77;83.11
36378;BME280;22402;42.746;23.606;2023-05-14T09:26:49;94003.22;;;17.96;83.01
36378;BME280;22402;42.746;23.606;2023-05-14T09:29:14;93992.94;;;18.10;82.85
36378;BME280;22402;42.746;23.606;2023-05-14T09:31:40;93985.34;;;18.30;82.54
36378;BME280;22402;42.746;23.606;2023-05-14T09:34:05;93988.66;;;18.47;82.39
36378;BME280;22402;42.746;23.606;2023-05-14T09:36:33;93994.63;;;18.63;82.24
36378;BME280;22402;42.746;23.606;2023-05-14T09:38:59;94002.94;;;18.75;81.92
36378;BME280;22402;42.746;23.606;2023-05-14T09:41:25;93978.53;;;18.73;81.32
36378;BME280;22402;42.746;23.606;2023-05-14T09:43:50;93989.56;;;18.92;81.22
36378;BME280;22402;42.746;23.606;2023-05-14T09:46:16;93986.84;;;19.00;80.68
36378;BME280;22402;42.746;23.606;2023-05-14T09:48:42;93992.75;;;19.02;80.63
36378;BME280;22402;42.746;23.606;2023-05-14T09:51:09;93993.41;;;19.04;80.79
36378;BME280;22402;42.746;23.606;2023-05-14T09:53:36;93989.38;;;19.08;80.33
36378;BME280;22402;42.746;23.606;2023-05-14T09:56:01;93979.47;;;19.10;80.02
36378;BME280;22402;42.746;23.606;2023-05-14T09:58:27;93972.78;;;19.14;79.64
36378;BME280;22402;42.746;23.606;2023-05-14T10:00:53;93968.97;;;19.17;79.66
36378;BME280;22402;42.746;23.606;2023-05-14T10:03:24;93986.09;;;19.21;79.39
36378;BME280;22402;42.746;23.606;2023-05-14T10:05:50;93988.56;;;19.22;79.28
36378;BME280;22402;42.746;23.606;2023-05-14T10:08:20;93984.75;;;19.25;79.25
36378;BME280;22402;42.746;23.606;2023-05-14T10:10:50;93980.88;;;19.27;78.83
36378;BME280;22402;42.746;23.606;2023-05-14T10:13:19;93976.25;;;19.29;78.69
36378;BME280;22402;42.746;23.606;2023-05-14T10:18:35;93950.25;;;19.33;78.38
36378;BME280;22402;42.746;23.606;2023-05-14T10:21:05;93954.34;;;19.35;78.37
36378;BME280;22402;42.746;23.606;2023-05-14T10:23:30;93958.66;;;19.37;78.07
36378;BME280;22402;42.746;23.606;2023-05-14T10:25:59;93951.09;;;19.33;78.05
36378;BME280;22402;42.746;23.606;2023-05-14T10:28:26;93948.09;;;19.37;78.00
36378;BME280;22402;42.746;23.606;2023-05-14T10:30:53;93936.50;;;19.38;77.69
36378;BME280;22402;42.746;23.606;2023-05-14T10:33:18;93940.75;;;19.39;77.73
36378;BME280;22402;42.746;23.606;2023-05-14T10:36:03;93926.56;;;19.40;77.66
36378;BME280;22402;42.746;23.606;2023-05-14T10:38:31;93929.81;;;19.42;77.65
36378;BME280;22402;42.746;23.606;2023-05-14T10:41:10;93922.09;;;19.40;77.90
36378;BME280;22402;42.746;23.606;2023-05-14T10:43:38;93922.09;;;19.40;77.74
36378;BME280;22402;42.746;23.606;2023-05-14T10:46:05;93927.16;;;19.42;77.51
36378;BME280;22402;42.746;23.606;2023-05-14T10:48:31;93944.94;;;19.48;77.26
36378;BME280;22402;42.746;23.606;2023-05-14T10:50:57;93941.53;;;19.54;76.92
36378;BME280;22402;42.746;23.606;2023-05-14T10:53:37;93946.00;;;19.68;76.24
36378;BME280;22402;42.746;23.606;2023-05-14T10:56:13;93940.97;;;19.73;74.41
36378;BME280;22402;42.746;23.606;2023-05-14T10:58:41;93939.16;;;19.74;71.80
36378;BME280;22402;42.746;23.606;2023-05-14T11:01:08;93921.44;;;19.74;73.15
36378;BME280;22402;42.746;23.606;2023-05-14T11:03:42;93933.78;;;19.89;73.65
36378;BME280;22402;42.746;23.606;2023-05-14T11:06:08;93934.22;;;19.92;73.98
36378;BME280;22402;42.746;23.606;2023-05-14T11:08:34;93943.88;;;20.00;74.20
36378;BME280;22402;42.746;23.606;2023-05-14T11:11:00;93943.13;;;20.06;73.89
36378;BME280;22402;42.746;23.606;2023-05-14T11:13:26;93954.97;;;20.10;73.97
36378;BME280;22402;42.746;23.606;2023-05-14T11:15:52;93961.91;;;20.11;74.13
36378;BME280;22402;42.746;23.606;2023-05-14T11:18:31;93969.69;;;20.19;74.23
36378;BME280;22402;42.746;23.606;2023-05-14T11:21:04;93964.41;;;20.19;74.11
36378;BME280;22402;42.746;23.606;2023-05-14T11:23:31;93947.22;;;20.09;74.85
36378;BME280;22402;42.746;23.606;2023-05-14T11:25:56;93932.66;;;19.98;75.02
36378;BME280;22402;42.746;23.606;2023-05-14T11:28:23;93926.88;;;19.88;75.91
36378;BME280;22402;42.746;23.606;2023-05-14T11:30:50;93929.81;;;19.78;76.59
36378;BME280;22402;42.746;23.606;2023-05-14T11:33:16;93934.22;;;19.71;77.21
36378;BME280;22402;42.746;23.606;2023-05-14T11:35:42;93923.22;;;19.67;77.45
36378;BME280;22402;42.746;23.606;2023-05-14T11:38:17;93932.16;;;19.66;78.11
36378;BME280;22402;42.746;23.606;2023-05-14T11:40:55;93932.50;;;19.63;78.26
36378;BME280;22402;42.746;23.606;2023-05-14T11:43:22;93929.53;;;19.66;78.19
36378;BME280;22402;42.746;23.606;2023-05-14T11:45:53;93926.03;;;19.66;78.48
36378;BME280;22402;42.746;23.606;2023-05-14T11:48:20;93927.88;;;19.65;78.95
36378;BME280;22402;42.746;23.606;2023-05-14T11:50:50;93921.94;;;19.63;76.48
36378;BME280;22402;42.746;23.606;2023-05-14T11:53:24;93923.72;;;19.63;71.98
36378;BME280;22402;42.746;23.606;2023-05-14T11:55:51;93925.50;;;19.55;74.97
36378;BME280;22402;42.746;23.606;2023-05-14T11:58:18;93927.88;;;19.50;76.66
36378;BME280;22402;42.746;23.606;2023-05-14T12:00:44;93936.00;;;19.49;77.95
36378;BME280;22402;42.746;23.606;2023-05-14T12:03:10;93917.88;;;19.46;78.55
36378;BME280;22402;42.746;23.606;2023-05-14T12:05:37;93924.78;;;19.47;78.77
36378;BME280;22402;42.746;23.606;2023-05-14T12:08:18;93910.56;;;19.48;78.71
36378;BME280;22402;42.746;23.606;2023-05-14T12:10:44;93908.56;;;19.50;79.05
36378;BME280;22402;42.746;23.606;2023-05-14T12:13:09;93910.19;;;19.51;79.25
36378;BME280;22402;42.746;23.606;2023-05-14T12:15:39;93901.25;;;19.52;79.35
36378;BME280;22402;42.746;23.606;2023-05-14T12:18:08;93909.19;;;19.52;79.53
36378;BME280;22402;42.746;23.606;2023-05-14T12:20:33;93901.25;;;19.52;79.28
36378;BME280;22402;42.746;23.606;2023-05-14T12:22:59;93877.84;;;19.49;80.11
36378;BME280;22402;42.746;23.606;2023-05-14T12:25:24;93875.00;;;19.50;80.14
36378;BME280;22402;42.746;23.606;2023-05-14T12:27:51;93875.00;;;19.50;80.23
36378;BME280;22402;42.746;23.606;2023-05-14T12:30:16;93868.50;;;19.53;80.44
36378;BME280;22402;42.746;23.606;2023-05-14T12:32:42;93855.72;;;19.56;80.20
36378;BME280;22402;42.746;23.606;2023-05-14T12:35:08;93855.97;;;19.62;80.19
36378;BME280;22402;42.746;23.606;2023-05-14T12:37:34;93857.09;;;19.67;79.86
36378;BME280;22402;42.746;23.606;2023-05-14T12:40:02;93845.91;;;19.72;79.72
36378;BME280;22402;42.746;23.606;2023-05-14T12:42:28;93839.06;;;19.77;79.91
36378;BME280;22402;42.746;23.606;2023-05-14T12:44:54;93842.59;;;19.85;79.80
36378;BME280;22402;42.746;23.606;2023-05-14T12:47:19;93851.78;;;19.89;79.94
36378;BME280;22402;42.746;23.606;2023-05-14T12:49:45;93850.19;;;19.94;79.83
36378;BME280;22402;42.746;23.606;2023-05-14T12:52:10;93849.81;;;19.97;79.87
36378;BME280;22402;42.746;23.606;2023-05-14T12:54:36;93850.03;;;19.96;79.65